YM Keelung — VRFI2 — position and weather

sailwx.info

Track history (hours):
 
Tides and Currents Weather Stations Pressure Air Temp Water Temp Dewpoint Dewpoint Depression Visibility Wind Speed Wind Dir Waves Ship Positions

YM Keelung

Last reported at 2018-Jul-06 18:19 UTC. Time now 2018-Jul-16 22:13 UTC.
Position S 26°48' E 153°12'.
Warning: this ship's position is 10 days out of date.

Length 260 m; draft 11.3 m.

Type: Ship (hazmat cat D). MMSI: 477261800.

Date/timePositionNaut miles runAvg speedWind from/ knotsBaromVisibWave heightAir tempDewpointWater temp
2018-Jul-06 18:19S 26°48' E 153°12'612.1
2018-Jul-06 17:49S 26°54' E 153°11'516.2
2018-Jul-06 17:30S 26°58' E 153°14'714.5
2018-Jul-06 17:00S 27°04' E 153°18'714.7
2018-Jul-06 16:30S 27°11' E 153°21'714.7
2018-Jul-06 16:00S 27°17' E 153°15'612.5
2018-Jul-06 15:30S 27°22' E 153°11'1 0.8
2018-Jul-06 14:33S 27°22' E 153°10'0 0.0
2018-Jul-06 14:27S 27°22' E 153°10'0 0.0
2018-Jul-06 14:00S 27°22' E 153°10'0 0.0
2018-Jul-06 10:12S 27°22' E 153°10'0 0.0
2018-Jul-06 10:00S 27°22' E 153°10'0 0.0
2018-Jul-06 09:30S 27°22' E 153°10'0 0.0
2018-Jul-06 08:48S 27°22' E 153°10'0 0.0
2018-Jul-06 08:24S 27°22' E 153°10'0 0.0
2018-Jul-06 08:00S 27°22' E 153°10'0 0.0
2018-Jul-06 07:27S 27°22' E 153°10'0 0.0
2018-Jul-06 07:00S 27°22' E 153°10'0 0.0
2018-Jul-06 06:30S 27°22' E 153°10'0 0.0
2018-Jul-06 03:21S 27°22' E 153°10'0 0.0
2018-Jul-06 03:00S 27°22' E 153°10'0 0.0
2018-Jul-06 02:27S 27°22' E 153°10'0 0.0
2018-Jul-05 19:51S 27°22' E 153°10'0 0.0
2018-Jul-05 19:30S 27°22' E 153°10'3 4.5
2018-Jul-05 18:52S 27°20' E 153°12'514.5
2018-Jul-05 18:30S 27°16' E 153°16'714.9
2018-Jul-05 18:00S 27°10' E 153°21'815.1
2018-Jul-05 17:30S 27°03' E 153°17'815.5
2018-Jul-05 17:00S 26°57' E 153°13'815.6
2018-Jul-05 16:31S 26°50' E 153°09'8 6.0
2018-Jul-05 15:08S 26°46' E 153°18'2 8.3
2018-Jul-05 14:54S 26°47' E 153°19'1212.9
2018-Jul-05 14:00S 26°53' E 153°31'914.9
2018-Jul-05 13:24S 26°57' E 153°39'614.6
2018-Jul-05 13:01S 27°03' E 153°42'3714.5
2018-Jul-05 10:25S 27°39' E 153°50'614.5
2018-Jul-05 10:01S 27°45' E 153°51'31014.6
2018-Jul-04 12:48S 32°51' E 152°46'616.9
2018-Jul-04 12:26S 32°56' E 152°44'34615.3
2018-Jul-03 13:47S 38°05' E 149°29'516.1
2018-Jul-03 13:29S 38°07' E 149°24'815.7
2018-Jul-03 12:57S 38°13' E 149°16'1015.8
2018-Jul-03 12:17S 38°19' E 149°05'516.8
2018-Jul-03 11:59S 38°22' E 149°00'816.7
2018-Jul-03 11:30S 38°26' E 148°52'1016.5
2018-Jul-03 10:56S 38°32' E 148°42'816.2
2018-Jul-03 10:26S 38°37' E 148°33'1416.7
2018-Jul-03 09:34S 38°45' E 148°18'217.4
2018-Jul-03 09:26S 38°47' E 148°16'  
2018-Jun-30 12:33S 38°20' E 148°50'010.0
2018-Jun-30 12:30S 38°20' E 148°51'9 9.7
2018-Jun-30 11:38S 38°14' E 148°59'1 9.5
2018-Jun-30 11:30S 38°14' E 149°00'5 9.2
2018-Jun-30 10:59S 38°11' E 149°05'273 9.8
2018-Jun-29 07:07S 33°58' E 151°13'0 0.0
2018-Jun-29 06:58S 33°58' E 151°13'0 0.0
2018-Jun-27 21:01S 33°58' E 151°13'0 0.0
2018-Jun-27 20:59S 33°58' E 151°13'0 0.0
2018-Jun-27 20:15S 33°58' E 151°13'0 0.1
2018-Jun-27 19:57S 33°58' E 151°13'0 0.0
2018-Jun-27 19:26S 33°58' E 151°13'0 0.0
2018-Jun-27 19:00S 33°58' E 151°13'0 0.0
2018-Jun-27 18:30S 33°58' E 151°13'0 0.2
2018-Jun-27 17:57S 33°58' E 151°13'3 5.6
2018-Jun-27 17:25S 34°01' E 151°15'3 8.1
2018-Jun-27 17:00S 34°01' E 151°19'3 6.9
2018-Jun-27 16:30S 34°01' E 151°23'4 8.8
2018-Jun-27 16:00S 33°58' E 151°27'4 8.2
2018-Jun-27 15:30S 33°56' E 151°31'510.6
2018-Jun-27 15:00S 33°53' E 151°37'612.7
2018-Jun-27 14:30S 33°49' E 151°43'713.8
2018-Jun-27 14:01S 33°44' E 151°48'713.8
2018-Jun-27 13:30S 33°38' E 151°53'4513.7
2018-Jun-27 10:15S 33°02' E 152°25'513.7
2018-Jun-27 09:53S 32°58' E 152°28'513.6
2018-Jun-27 09:30S 32°54' E 152°31'713.5
2018-Jun-27 09:00S 32°48' E 152°36'713.4
2018-Jun-27 08:30S 32°43' E 152°40'713.5
2018-Jun-27 08:00S 32°37' E 152°45'  
Track history (hours):
 
Tides and Currents Weather Stations Pressure Air Temp Water Temp Dewpoint Dewpoint Depression Visibility Wind Speed Wind Dir Waves Ship Positions

YM Keelung

Last reported at 2018-Jul-06 18:19 UTC. Time now 2018-Jul-16 22:13 UTC.
Position S 26°48' E 153°12'.
Warning: this ship's position is 10 days out of date.

Length 260 m; draft 11.3 m.

Type: Ship (hazmat cat D). MMSI: 477261800.

Date/timePositionNaut miles runAvg speedWind from/ knotsBaromVisibWave heightAir tempDewpointWater temp
2018-Jul-06 18:19S 26°48' E 153°12'612.1
2018-Jul-06 17:49S 26°54' E 153°11'516.2
2018-Jul-06 17:30S 26°58' E 153°14'714.5
2018-Jul-06 17:00S 27°04' E 153°18'714.7
2018-Jul-06 16:30S 27°11' E 153°21'714.7
2018-Jul-06 16:00S 27°17' E 153°15'612.5
2018-Jul-06 15:30S 27°22' E 153°11'1 0.8
2018-Jul-06 14:33S 27°22' E 153°10'0 0.0
2018-Jul-06 14:27S 27°22' E 153°10'0 0.0
2018-Jul-06 14:00S 27°22' E 153°10'0 0.0
2018-Jul-06 10:12S 27°22' E 153°10'0 0.0
2018-Jul-06 10:00S 27°22' E 153°10'0 0.0
2018-Jul-06 09:30S 27°22' E 153°10'0 0.0
2018-Jul-06 08:48S 27°22' E 153°10'0 0.0
2018-Jul-06 08:24S 27°22' E 153°10'0 0.0
2018-Jul-06 08:00S 27°22' E 153°10'0 0.0
2018-Jul-06 07:27S 27°22' E 153°10'0 0.0
2018-Jul-06 07:00S 27°22' E 153°10'0 0.0
2018-Jul-06 06:30S 27°22' E 153°10'0 0.0
2018-Jul-06 03:21S 27°22' E 153°10'0 0.0
2018-Jul-06 03:00S 27°22' E 153°10'0 0.0
2018-Jul-06 02:27S 27°22' E 153°10'0 0.0
2018-Jul-05 19:51S 27°22' E 153°10'0 0.0
2018-Jul-05 19:30S 27°22' E 153°10'3 4.5
2018-Jul-05 18:52S 27°20' E 153°12'514.5
2018-Jul-05 18:30S 27°16' E 153°16'714.9
2018-Jul-05 18:00S 27°10' E 153°21'815.1
2018-Jul-05 17:30S 27°03' E 153°17'815.5
2018-Jul-05 17:00S 26°57' E 153°13'815.6
2018-Jul-05 16:31S 26°50' E 153°09'8 6.0
2018-Jul-05 15:08S 26°46' E 153°18'2 8.3
2018-Jul-05 14:54S 26°47' E 153°19'1212.9
2018-Jul-05 14:00S 26°53' E 153°31'914.9
2018-Jul-05 13:24S 26°57' E 153°39'614.6
2018-Jul-05 13:01S 27°03' E 153°42'3714.5
2018-Jul-05 10:25S 27°39' E 153°50'614.5
2018-Jul-05 10:01S 27°45' E 153°51'31014.6
2018-Jul-04 12:48S 32°51' E 152°46'616.9
2018-Jul-04 12:26S 32°56' E 152°44'34615.3
2018-Jul-03 13:47S 38°05' E 149°29'516.1
2018-Jul-03 13:29S 38°07' E 149°24'815.7
2018-Jul-03 12:57S 38°13' E 149°16'1015.8
2018-Jul-03 12:17S 38°19' E 149°05'516.8
2018-Jul-03 11:59S 38°22' E 149°00'816.7
2018-Jul-03 11:30S 38°26' E 148°52'1016.5
2018-Jul-03 10:56S 38°32' E 148°42'816.2
2018-Jul-03 10:26S 38°37' E 148°33'1416.7
2018-Jul-03 09:34S 38°45' E 148°18'217.4
2018-Jul-03 09:26S 38°47' E 148°16'  
2018-Jun-30 12:33S 38°20' E 148°50'010.0
2018-Jun-30 12:30S 38°20' E 148°51'9 9.7
2018-Jun-30 11:38S 38°14' E 148°59'1 9.5
2018-Jun-30 11:30S 38°14' E 149°00'5 9.2
2018-Jun-30 10:59S 38°11' E 149°05'273 9.8
2018-Jun-29 07:07S 33°58' E 151°13'0 0.0
2018-Jun-29 06:58S 33°58' E 151°13'0 0.0
2018-Jun-27 21:01S 33°58' E 151°13'0 0.0
2018-Jun-27 20:59S 33°58' E 151°13'0 0.0
2018-Jun-27 20:15S 33°58' E 151°13'0 0.1
2018-Jun-27 19:57S 33°58' E 151°13'0 0.0
2018-Jun-27 19:26S 33°58' E 151°13'0 0.0
2018-Jun-27 19:00S 33°58' E 151°13'0 0.0
2018-Jun-27 18:30S 33°58' E 151°13'0 0.2
2018-Jun-27 17:57S 33°58' E 151°13'3 5.6
2018-Jun-27 17:25S 34°01' E 151°15'3 8.1
2018-Jun-27 17:00S 34°01' E 151°19'3 6.9
2018-Jun-27 16:30S 34°01' E 151°23'4 8.8
2018-Jun-27 16:00S 33°58' E 151°27'4 8.2
2018-Jun-27 15:30S 33°56' E 151°31'510.6
2018-Jun-27 15:00S 33°53' E 151°37'612.7
2018-Jun-27 14:30S 33°49' E 151°43'713.8
2018-Jun-27 14:01S 33°44' E 151°48'713.8
2018-Jun-27 13:30S 33°38' E 151°53'4513.7
2018-Jun-27 10:15S 33°02' E 152°25'513.7
2018-Jun-27 09:53S 32°58' E 152°28'513.6
2018-Jun-27 09:30S 32°54' E 152°31'713.5
2018-Jun-27 09:00S 32°48' E 152°36'713.4
2018-Jun-27 08:30S 32°43' E 152°40'713.5
2018-Jun-27 08:00S 32°37' E 152°45'  

Dump ship's entire track history